Terminal Aerodrome Forecast
Issued by NWS Atlanta, GA

Home | Current Version | Previous Version | Text Only | Print | Product List | Glossary On
Versions: 1 2 3 4 5 6 7 8 9 10 11 12 13 14 15 16 17 18
329
FTUS42 KFFC 280338 AAB
TAFCSG
TAF AMD
KCSG 280338Z 2804/2824 10004KT 6SM BR BKN007
     FM280800 14003KT 4SM BR BKN006
     FM281200 16003KT 2SM BR BKN006
     FM281500 16005KT P6SM BKN015
     FM281800 20010KT P6SM BKN045=

USA.gov is the U.S. government's official web portal to all federal, state and local government web resources and services.